Time;durP1;ratioP1;P1;durP2;ratioP2;P2;SDS_P1;SDS_P2;PMS_P1;PMS_P2;Temp;Humidity;BMP_temperature;BMP_pressure;BME280_temperature;BME280_humidity;BME280_pressure;Samples;Min_cycle;Max_cycle;Signal;HPM_P1;HPM_P2
2023/04/11 00:00:10;;;;;;;;;;;10.60;99.90;;;;;;5024890;28;19928;-67
2023/04/11 00:02:38;;;;;;;;;;;10.60;99.90;;;;;;5024490;28;19925;-67
2023/04/11 00:05:05;;;;;;;;;;;10.60;99.90;;;;;;5024408;28;20205;-66
2023/04/11 00:07:32;;;;;;;;;;;10.50;99.90;;;;;;5024550;28;19985;-66
2023/04/11 00:09:59;;;;;;;;;;;10.50;99.90;;;;;;5024713;28;19922;-67
2023/04/11 00:12:25;;;;;;;;;;;10.50;99.90;;;;;;5024519;28;20211;-68
2023/04/11 00:14:52;;;;;;;;;;;10.50;99.90;;;;;;5024145;28;20379;-67
2023/04/11 00:17:19;;;;;;;;;;;10.60;99.90;;;;;;5023778;28;19921;-67
2023/04/11 00:19:48;;;;;;;;;;;10.50;99.90;;;;;;5024052;28;20204;-66
2023/04/11 00:22:16;;;;;;;;;;;10.60;99.90;;;;;;5024410;28;19930;-68
2023/04/11 00:24:43;;;;;;;;;;;10.60;99.90;;;;;;5023877;28;20116;-67
2023/04/11 00:27:09;;;;;;;;;;;10.60;99.90;;;;;;5023772;28;19988;-67
2023/04/11 00:29:36;;;;;;;;;;;10.50;99.90;;;;;;5024220;28;19953;-67
2023/04/11 00:32:03;;;;;;;;;;;10.50;99.90;;;;;;5024306;28;20180;-67
2023/04/11 00:34:30;;;;;;;;;;;10.50;99.90;;;;;;5024289;28;20121;-67
2023/04/11 00:36:58;;;;;;;;;;;10.50;99.90;;;;;;5023467;28;20244;-68
2023/04/11 00:39:25;;;;;;;;;;;10.50;99.90;;;;;;5023499;28;19921;-68
2023/04/11 00:41:52;;;;;;;;;;;10.50;99.90;;;;;;5023903;28;20140;-66
2023/04/11 00:44:18;;;;;;;;;;;10.50;99.90;;;;;;5023648;28;20213;-67
2023/04/11 00:46:45;;;;;;;;;;;10.50;99.90;;;;;;5023772;28;19960;-67
2023/04/11 00:49:12;;;;;;;;;;;10.50;99.90;;;;;;5023714;28;20235;-67
2023/04/11 00:51:39;;;;;;;;;;;10.40;99.90;;;;;;5024022;28;19921;-67
2023/04/11 00:54:08;;;;;;;;;;;10.50;99.90;;;;;;5023850;28;20169;-68
2023/04/11 00:56:34;;;;;;;;;;;10.50;99.90;;;;;;5023447;28;19922;-67
2023/04/11 00:59:01;;;;;;;;;;;10.60;99.90;;;;;;5023488;28;19921;-69
2023/04/11 01:01:28;;;;;;;;;;;10.60;99.90;;;;;;5023911;28;19922;-67
2023/04/11 01:03:55;;;;;;;;;;;10.60;99.90;;;;;;5023597;28;19922;-67
2023/04/11 01:06:23;;;;;;;;;;;10.60;99.90;;;;;;5023536;28;19956;-68
2023/04/11 01:08:50;;;;;;;;;;;10.60;99.90;;;;;;5023901;28;19921;-69
2023/04/11 01:11:19;;;;;;;;;;;10.60;99.90;;;;;;5023560;28;19985;-68
2023/04/11 01:13:46;;;;;;;;;;;10.60;99.90;;;;;;5023672;28;19981;-68
2023/04/11 01:16:13;;;;;;;;;;;10.60;99.90;;;;;;5023615;28;20000;-67
2023/04/11 01:18:40;;;;;;;;;;;10.60;99.90;;;;;;5023286;28;19968;-67
2023/04/11 01:21:07;;;;;;;;;;;10.60;99.90;;;;;;5023838;28;19921;-67
2023/04/11 01:23:35;;;;;;;;;;;10.60;99.90;;;;;;5023573;28;19948;-67
2023/04/11 01:26:02;;;;;;;;;;;10.60;99.90;;;;;;5023344;28;20008;-71
2023/04/11 01:28:28;;;;;;;;;;;10.50;99.90;;;;;;5023314;28;19988;-67
2023/04/11 01:30:56;;;;;;;;;;;10.50;99.90;;;;;;5023484;28;19952;-67
2023/04/11 01:33:23;;;;;;;;;;;10.50;99.90;;;;;;5023608;28;19921;-67
2023/04/11 01:35:49;;;;;;;;;;;10.40;99.90;;;;;;5023421;28;19928;-66
2023/04/11 01:38:16;;;;;;;;;;;10.40;99.90;;;;;;5023116;28;19921;-68
2023/04/11 01:40:44;;;;;;;;;;;10.40;99.90;;;;;;5023142;28;19928;-67
2023/04/11 01:43:11;;;;;;;;;;;10.40;99.90;;;;;;5023279;28;19922;-67
2023/04/11 01:45:38;;;;;;;;;;;10.40;99.90;;;;;;5023387;28;19921;-68
2023/04/11 01:48:06;;;;;;;;;;;10.40;99.90;;;;;;5022954;28;20220;-67
2023/04/11 01:50:33;;;;;;;;;;;10.40;99.90;;;;;;5023128;28;20226;-67
2023/04/11 01:52:59;;;;;;;;;;;10.40;99.90;;;;;;5026759;28;20205;-67
2023/04/11 01:55:26;;;;;;;;;;;10.40;99.90;;;;;;5027129;28;19993;-67
2023/04/11 01:57:54;;;;;;;;;;;10.40;99.90;;;;;;5026678;28;19921;-68
2023/04/11 02:00:21;;;;;;;;;;;10.40;99.90;;;;;;5026872;28;19927;-68
2023/04/11 02:02:47;;;;;;;;;;;10.40;99.90;;;;;;5026935;28;19928;-66
2023/04/11 02:05:14;;;;;;;;;;;10.40;99.90;;;;;;5026901;28;19960;-66
2023/04/11 02:07:41;;;;;;;;;;;10.40;99.90;;;;;;5026425;28;20272;-68
2023/04/11 02:10:08;;;;;;;;;;;10.40;99.90;;;;;;5026618;28;19960;-66
2023/04/11 02:12:34;;;;;;;;;;;10.30;99.90;;;;;;5026554;28;19921;-66
2023/04/11 02:15:03;;;;;;;;;;;10.30;99.90;;;;;;5026340;28;19993;-66
2023/04/11 02:17:30;;;;;;;;;;;10.20;99.90;;;;;;5026077;28;20247;-67
2023/04/11 02:19:57;;;;;;;;;;;10.20;99.90;;;;;;5026791;28;19925;-66
2023/04/11 02:22:23;;;;;;;;;;;10.10;99.90;;;;;;5026382;28;19922;-66
2023/04/11 02:24:50;;;;;;;;;;;10.00;99.90;;;;;;5026170;28;19960;-66
2023/04/11 02:27:17;;;;;;;;;;;9.90;99.90;;;;;;5026047;28;19922;-66
2023/04/11 02:29:44;;;;;;;;;;;9.80;99.90;;;;;;5026240;28;20001;-66
2023/04/11 02:32:12;;;;;;;;;;;9.70;99.90;;;;;;5026427;28;20265;-66
2023/04/11 02:34:38;;;;;;;;;;;9.60;99.90;;;;;;5026371;28;19921;-66
2023/04/11 02:37:05;;;;;;;;;;;9.60;99.90;;;;;;5026112;28;19988;-67
2023/04/11 02:39:31;;;;;;;;;;;9.50;99.90;;;;;;5026242;28;20180;-68
2023/04/11 02:41:58;;;;;;;;;;;9.50;99.90;;;;;;5026265;28;19988;-67
2023/04/11 02:44:25;;;;;;;;;;;9.40;99.90;;;;;;5025866;28;19921;-66
2023/04/11 02:46:51;;;;;;;;;;;9.40;99.90;;;;;;5025661;28;19921;-66
2023/04/11 02:49:19;;;;;;;;;;;9.40;99.90;;;;;;5026032;28;19922;-67
2023/04/11 02:51:46;;;;;;;;;;;9.40;99.90;;;;;;5025995;28;19922;-69
2023/04/11 02:54:13;;;;;;;;;;;9.50;99.90;;;;;;5026017;28;20256;-67
2023/04/11 02:56:40;;;;;;;;;;;9.40;99.90;;;;;;5025671;28;19989;-66
2023/04/11 02:59:06;;;;;;;;;;;9.40;99.90;;;;;;5025870;28;20001;-67
2023/04/11 03:01:33;;;;;;;;;;;9.40;99.90;;;;;;5025645;28;20264;-66
2023/04/11 03:04:00;;;;;;;;;;;9.40;99.90;;;;;;5024882;28;19988;-66
2023/04/11 03:06:28;;;;;;;;;;;9.40;99.90;;;;;;5025567;28;19972;-67
2023/04/11 03:08:55;;;;;;;;;;;9.40;99.90;;;;;;5025867;28;20108;-67
2023/04/11 03:11:21;;;;;;;;;;;9.40;99.90;;;;;;5025798;28;19944;-66
2023/04/11 03:13:48;;;;;;;;;;;9.40;99.90;;;;;;5025292;28;20284;-67
2023/04/11 03:16:14;;;;;;;;;;;9.30;99.90;;;;;;5025421;28;19996;-67
2023/04/11 03:18:41;;;;;;;;;;;9.30;99.90;;;;;;5025222;28;19967;-67
2023/04/11 03:21:10;;;;;;;;;;;9.30;99.90;;;;;;5025276;28;19984;-67
2023/04/11 03:23:38;;;;;;;;;;;9.30;99.90;;;;;;5025294;28;20120;-67
2023/04/11 03:26:05;;;;;;;;;;;9.30;99.90;;;;;;5025174;28;19954;-68
2023/04/11 03:28:32;;;;;;;;;;;9.30;99.90;;;;;;5025409;28;20152;-68
2023/04/11 03:30:58;;;;;;;;;;;9.30;99.90;;;;;;5025252;28;19956;-67
2023/04/11 03:33:25;;;;;;;;;;;9.30;99.90;;;;;;5024892;28;19993;-66
2023/04/11 03:35:51;;;;;;;;;;;9.30;99.90;;;;;;5024875;28;20259;-67
2023/04/11 03:38:19;;;;;;;;;;;9.30;99.90;;;;;;5025046;28;19988;-66
2023/04/11 03:40:47;;;;;;;;;;;9.30;99.90;;;;;;5024787;28;20284;-67
2023/04/11 03:43:14;;;;;;;;;;;9.30;99.90;;;;;;5024872;28;20231;-67
2023/04/11 03:45:41;;;;;;;;;;;9.40;99.90;;;;;;5025107;28;19928;-67
2023/04/11 03:48:07;;;;;;;;;;;9.40;99.90;;;;;;5024819;28;19988;-67
2023/04/11 03:50:34;;;;;;;;;;;9.40;99.90;;;;;;5024973;28;20169;-66
2023/04/11 03:53:01;;;;;;;;;;;9.30;99.90;;;;;;5024774;28;19980;-67
2023/04/11 03:55:27;;;;;;;;;;;9.30;99.90;;;;;;5024740;28;19963;-67
2023/04/11 03:57:55;;;;;;;;;;;9.40;99.90;;;;;;5024579;28;20001;-67
2023/04/11 04:00:22;;;;;;;;;;;9.40;99.90;;;;;;5024695;28;19985;-67
2023/04/11 04:02:48;;;;;;;;;;;9.40;99.90;;;;;;5024892;28;19984;-68
2023/04/11 04:05:15;;;;;;;;;;;9.40;99.90;;;;;;5025367;28;19957;-68
2023/04/11 04:07:42;;;;;;;;;;;9.30;99.90;;;;;;5024586;28;19921;-66
2023/04/11 04:10:08;;;;;;;;;;;9.40;99.90;;;;;;5025563;28;19985;-68
2023/04/11 04:12:35;;;;;;;;;;;9.40;99.90;;;;;;5025072;28;19928;-68
2023/04/11 04:15:03;;;;;;;;;;;9.30;99.90;;;;;;5024993;28;20123;-68
2023/04/11 04:17:30;;;;;;;;;;;9.30;99.90;;;;;;5024047;28;19921;-67
2023/04/11 04:19:56;;;;;;;;;;;9.20;99.90;;;;;;5024367;28;20320;-68
2023/04/11 04:22:25;;;;;;;;;;;9.30;99.90;;;;;;5024462;28;19928;-68
2023/04/11 04:24:52;;;;;;;;;;;9.30;99.90;;;;;;5024182;28;19921;-67
2023/04/11 04:27:18;;;;;;;;;;;9.20;99.90;;;;;;5023958;28;20187;-66
2023/04/11 04:29:47;;;;;;;;;;;9.30;99.90;;;;;;5024469;28;19988;-67
2023/04/11 04:32:19;;;;;;;;;;;9.30;99.90;;;;;;5024125;28;20280;-68
2023/04/11 04:34:48;;;;;;;;;;;9.30;99.90;;;;;;5024303;28;20117;-67
2023/04/11 04:37:20;;;;;;;;;;;9.30;99.90;;;;;;5024126;28;19993;-66
2023/04/11 04:39:49;;;;;;;;;;;9.20;99.90;;;;;;5024149;28;20148;-67
2023/04/11 04:42:16;;;;;;;;;;;9.20;99.90;;;;;;5023771;28;19922;-67
2023/04/11 04:44:43;;;;;;;;;;;9.20;99.90;;;;;;5023708;28;20227;-68
2023/04/11 04:47:09;;;;;;;;;;;9.20;99.90;;;;;;5023835;28;20195;-67
2023/04/11 04:49:37;;;;;;;;;;;9.20;99.90;;;;;;5024112;28;19921;-68
2023/04/11 04:52:04;;;;;;;;;;;9.10;99.90;;;;;;5023835;28;19988;-68
2023/04/11 04:54:31;;;;;;;;;;;9.10;99.90;;;;;;5023797;28;20172;-67
2023/04/11 04:56:58;;;;;;;;;;;9.20;99.90;;;;;;5023449;28;19929;-67
2023/04/11 04:59:25;;;;;;;;;;;9.20;99.90;;;;;;5023870;28;19960;-68
2023/04/11 05:01:52;;;;;;;;;;;9.20;99.90;;;;;;5028656;28;19928;-67
2023/04/11 05:04:19;;;;;;;;;;;9.20;99.90;;;;;;5024535;28;20244;-68
2023/04/11 05:06:47;;;;;;;;;;;9.20;99.90;;;;;;5024021;28;19921;-67
2023/04/11 05:09:15;;;;;;;;;;;9.10;99.90;;;;;;5024051;28;19984;-71
2023/04/11 05:11:41;;;;;;;;;;;9.00;99.90;;;;;;5024087;28;19925;-67
2023/04/11 05:14:08;;;;;;;;;;;8.90;99.90;;;;;;5023842;28;20224;-68
2023/04/11 05:16:36;;;;;;;;;;;8.70;99.90;;;;;;5023977;28;19921;-68
2023/04/11 05:19:02;;;;;;;;;;;8.60;99.90;;;;;;5024091;28;19983;-68
2023/04/11 05:21:29;;;;;;;;;;;8.50;99.90;;;;;;5023974;28;19927;-68
2023/04/11 05:23:57;;;;;;;;;;;8.40;99.90;;;;;;5023982;28;19964;-67
2023/04/11 05:26:24;;;;;;;;;;;8.30;99.90;;;;;;5025173;28;19985;-67
2023/04/11 05:28:51;;;;;;;;;;;8.20;99.90;;;;;;5028094;28;19925;-68
2023/04/11 05:31:17;;;;;;;;;;;8.20;99.90;;;;;;5028028;28;19963;-69
2023/04/11 05:33:44;;;;;;;;;;;8.10;99.90;;;;;;5027753;28;19968;-68
2023/04/11 05:36:12;;;;;;;;;;;8.00;99.90;;;;;;5027768;28;19992;-69
2023/04/11 05:38:39;;;;;;;;;;;7.90;99.90;;;;;;5027605;28;19922;-69
2023/04/11 05:41:07;;;;;;;;;;;7.90;99.90;;;;;;5027953;28;20142;-68
2023/04/11 05:43:34;;;;;;;;;;;7.80;99.90;;;;;;5027284;28;19922;-67
2023/04/11 05:46:01;;;;;;;;;;;7.80;99.90;;;;;;5027224;28;20172;-69
2023/04/11 05:48:27;;;;;;;;;;;7.70;99.90;;;;;;5027559;28;19980;-68
2023/04/11 05:50:54;;;;;;;;;;;7.70;99.90;;;;;;5027661;28;19964;-69
2023/04/11 05:53:21;;;;;;;;;;;7.80;99.90;;;;;;5027145;28;20319;-68
2023/04/11 05:55:47;;;;;;;;;;;7.70;99.90;;;;;;5026971;28;20284;-68
2023/04/11 05:58:15;;;;;;;;;;;7.70;99.90;;;;;;5027377;28;19985;-68
2023/04/11 06:00:42;;;;;;;;;;;7.80;99.90;;;;;;5026960;28;19988;-69
2023/04/11 06:03:09;;;;;;;;;;;7.80;99.90;;;;;;5026003;28;19953;-67
2023/04/11 06:05:35;;;;;;;;;;;7.80;99.90;;;;;;5010546;28;19968;-69
2023/04/11 06:08:03;;;;;;;;;;;7.90;99.90;;;;;;5007115;28;19922;-69
2023/04/11 06:10:30;;;;;;;;;;;7.90;99.90;;;;;;5006980;28;20284;-68
2023/04/11 06:12:56;;;;;;;;;;;7.80;99.90;;;;;;5007245;28;19957;-68
2023/04/11 06:15:25;;;;;;;;;;;7.80;99.90;;;;;;5006952;28;20209;-68
2023/04/11 06:17:52;;;;;;;;;;;7.70;99.90;;;;;;5007116;28;19922;-68
2023/04/11 06:20:19;;;;;;;;;;;7.70;99.90;;;;;;5007214;28;19996;-69
2023/04/11 06:22:49;;;;;;;;;;;7.70;99.90;;;;;;5007137;28;19964;-68
2023/04/11 06:25:16;;;;;;;;;;;7.60;99.90;;;;;;5006800;28;19922;-69
2023/04/11 06:27:43;;;;;;;;;;;7.60;99.90;;;;;;5006746;28;19989;-69
2023/04/11 06:30:10;;;;;;;;;;;7.60;99.90;;;;;;5007034;28;19954;-67
2023/04/11 06:32:38;;;;;;;;;;;7.60;99.90;;;;;;5006737;28;20170;-68
2023/04/11 06:35:05;;;;;;;;;;;7.60;99.90;;;;;;5006670;28;19928;-68
2023/04/11 06:37:32;;;;;;;;;;;7.60;99.90;;;;;;5005710;28;20117;-68
2023/04/11 06:39:58;;;;;;;;;;;7.50;99.90;;;;;;5006693;28;20280;-68
2023/04/11 06:42:25;;;;;;;;;;;7.40;99.90;;;;;;5006584;28;20272;-69
2023/04/11 06:44:52;;;;;;;;;;;7.40;99.90;;;;;;5006544;28;19953;-69
2023/04/11 06:47:18;;;;;;;;;;;7.40;99.90;;;;;;5006573;28;19922;-69
2023/04/11 06:49:46;;;;;;;;;;;7.50;99.90;;;;;;5006742;28;19989;-68
2023/04/11 06:52:13;;;;;;;;;;;7.50;99.90;;;;;;5006747;28;20116;-68
2023/04/11 06:54:39;;;;;;;;;;;7.50;99.90;;;;;;5006280;28;20304;-68
2023/04/11 06:57:06;;;;;;;;;;;7.50;99.90;;;;;;5005961;28;19961;-67
2023/04/11 06:59:33;;;;;;;;;;;7.60;99.90;;;;;;5005608;28;19968;-68
2023/04/11 07:02:00;;;;;;;;;;;7.60;99.90;;;;;;5006602;28;19953;-68
2023/04/11 07:04:26;;;;;;;;;;;7.60;99.90;;;;;;5006433;28;20253;-67
2023/04/11 07:06:54;;;;;;;;;;;7.60;99.90;;;;;;5005726;28;19964;-67
2023/04/11 07:09:21;;;;;;;;;;;7.60;99.90;;;;;;5005850;28;19988;-68
2023/04/11 07:11:48;;;;;;;;;;;7.60;99.90;;;;;;5006357;28;19922;-69
2023/04/11 07:14:15;;;;;;;;;;;7.60;99.90;;;;;;5006077;28;19922;-68
2023/04/11 07:16:41;;;;;;;;;;;7.60;99.90;;;;;;5005684;28;19922;-68
2023/04/11 07:19:08;;;;;;;;;;;7.60;99.90;;;;;;5005638;28;19922;-68
2023/04/11 07:21:37;;;;;;;;;;;7.60;99.90;;;;;;5006037;28;19922;-68
2023/04/11 07:24:05;;;;;;;;;;;7.60;99.90;;;;;;5005753;28;20113;-68
2023/04/11 07:26:31;;;;;;;;;;;7.60;99.90;;;;;;5005220;28;19922;-68
2023/04/11 07:28:58;;;;;;;;;;;7.60;99.90;;;;;;5005982;28;19960;-69
2023/04/11 07:31:26;;;;;;;;;;;7.60;99.90;;;;;;5006071;28;19988;-68
2023/04/11 07:33:52;;;;;;;;;;;7.70;99.90;;;;;;5005823;28;19926;-73
2023/04/11 07:36:19;;;;;;;;;;;7.60;99.90;;;;;;5005325;28;20140;-68
2023/04/11 07:38:46;;;;;;;;;;;7.70;99.90;;;;;;5005582;28;19925;-68
2023/04/11 07:41:15;;;;;;;;;;;7.70;99.90;;;;;;5005622;28;19988;-68
2023/04/11 07:43:41;;;;;;;;;;;7.80;99.90;;;;;;5004076;28;20252;-67
2023/04/11 07:46:08;;;;;;;;;;;7.80;99.90;;;;;;5005434;28;19988;-68
2023/04/11 07:48:35;;;;;;;;;;;7.90;99.90;;;;;;5004839;28;19953;-68
2023/04/11 07:51:01;;;;;;;;;;;8.00;99.90;;;;;;5004954;28;20260;-69
2023/04/11 07:53:29;;;;;;;;;;;8.00;99.90;;;;;;5005377;28;19980;-67
2023/04/11 07:55:56;;;;;;;;;;;7.90;99.90;;;;;;5005172;28;20113;-67
2023/04/11 07:58:24;;;;;;;;;;;7.90;99.90;;;;;;5003954;28;19957;-68
2023/04/11 08:00:51;;;;;;;;;;;7.90;99.90;;;;;;5005200;28;20153;-68
2023/04/11 08:03:18;;;;;;;;;;;7.90;99.90;;;;;;5004728;28;20217;-68
2023/04/11 08:05:45;;;;;;;;;;;8.00;99.90;;;;;;5004855;28;19988;-67
2023/04/11 08:08:12;;;;;;;;;;;8.00;99.90;;;;;;5005071;28;19988;-68
2023/04/11 08:10:39;;;;;;;;;;;8.00;99.90;;;;;;5004815;28;19988;-68
2023/04/11 08:13:05;;;;;;;;;;;8.00;99.90;;;;;;5004717;28;19921;-69
2023/04/11 08:15:35;;;;;;;;;;;8.10;99.90;;;;;;5004531;28;19953;-69
2023/04/11 08:18:04;;;;;;;;;;;8.10;99.90;;;;;;5004654;28;19949;-68
2023/04/11 08:20:30;;;;;;;;;;;8.10;99.90;;;;;;5004536;28;19921;-68
2023/04/11 08:22:58;;;;;;;;;;;8.10;99.90;;;;;;5004416;28;20290;-68
2023/04/11 08:25:24;;;;;;;;;;;8.10;99.90;;;;;;5004817;28;19922;-66
2023/04/11 08:27:51;;;;;;;;;;;8.10;99.90;;;;;;5004202;28;20098;-68
2023/04/11 08:30:18;;;;;;;;;;;8.10;99.90;;;;;;5004433;28;20213;-67
2023/04/11 08:32:46;;;;;;;;;;;8.10;99.90;;;;;;5004629;28;20112;-68
2023/04/11 08:35:12;;;;;;;;;;;8.20;99.90;;;;;;5004381;28;19928;-68
2023/04/11 08:37:39;;;;;;;;;;;8.20;99.90;;;;;;5003579;28;19989;-68
2023/04/11 08:40:07;;;;;;;;;;;8.20;99.90;;;;;;5004199;28;19947;-69
2023/04/11 08:42:34;;;;;;;;;;;8.30;99.90;;;;;;5004503;28;19953;-67
2023/04/11 08:45:01;;;;;;;;;;;8.40;99.90;;;;;;5004403;28;19922;-68
2023/04/11 08:47:28;;;;;;;;;;;8.30;99.90;;;;;;5004117;28;19989;-68
2023/04/11 08:49:56;;;;;;;;;;;8.50;99.90;;;;;;5004468;28;19984;-68
2023/04/11 08:52:23;;;;;;;;;;;8.50;99.90;;;;;;5004517;28;20160;-68
2023/04/11 08:54:53;;;;;;;;;;;8.60;99.90;;;;;;5004004;28;19960;-69
2023/04/11 08:57:27;;;;;;;;;;;8.80;99.90;;;;;;5003836;28;20213;-68
2023/04/11 08:59:54;;;;;;;;;;;8.90;99.90;;;;;;5003629;28;19922;-68
2023/04/11 09:02:21;;;;;;;;;;;9.00;99.90;;;;;;5003800;28;19928;-69
2023/04/11 09:04:48;;;;;;;;;;;9.10;99.90;;;;;;5004216;28;19922;-68
2023/04/11 09:07:17;;;;;;;;;;;9.10;99.90;;;;;;5003911;28;19922;-68
2023/04/11 09:09:44;;;;;;;;;;;9.10;99.90;;;;;;5004357;28;20209;-68
2023/04/11 09:12:11;;;;;;;;;;;9.10;99.90;;;;;;5004272;28;19922;-68
2023/04/11 09:14:38;;;;;;;;;;;9.20;99.90;;;;;;5004222;28;19980;-68
2023/04/11 09:17:12;;;;;;;;;;;9.20;99.90;;;;;;5003917;28;19922;-68
2023/04/11 09:19:39;;;;;;;;;;;9.30;99.90;;;;;;5004158;28;19922;-68
2023/04/11 09:22:06;;;;;;;;;;;9.40;99.90;;;;;;5004327;28;20117;-67
2023/04/11 09:24:35;;;;;;;;;;;9.50;99.90;;;;;;5003622;28;19964;-68
2023/04/11 09:27:09;;;;;;;;;;;9.60;99.90;;;;;;5003643;28;19922;-68
2023/04/11 09:29:37;;;;;;;;;;;9.60;99.90;;;;;;5003843;28;20205;-68
2023/04/11 09:32:03;;;;;;;;;;;9.70;99.90;;;;;;5004178;28;20153;-68
2023/04/11 09:34:30;;;;;;;;;;;9.70;99.90;;;;;;5004000;28;19922;-68
2023/04/11 09:36:57;;;;;;;;;;;9.80;99.90;;;;;;5003094;28;19997;-67
2023/04/11 09:39:27;;;;;;;;;;;9.80;99.90;;;;;;5003753;28;19945;-68
2023/04/11 09:41:55;;;;;;;;;;;9.90;99.90;;;;;;5004356;28;19960;-67
2023/04/11 09:44:34;;;;;;;;;;;10.00;99.90;;;;;;5003965;28;19925;-67
2023/04/11 09:47:01;;;;;;;;;;;10.10;99.90;;;;;;5003518;28;19985;-67
2023/04/11 09:49:27;;;;;;;;;;;10.20;99.90;;;;;;5003752;28;20251;-67
2023/04/11 09:51:54;;;;;;;;;;;10.30;99.90;;;;;;5003892;28;19957;-67
2023/04/11 09:54:21;;;;;;;;;;;10.30;99.90;;;;;;5003708;28;19989;-69
2023/04/11 09:56:48;;;;;;;;;;;10.30;99.90;;;;;;5003728;28;19921;-67
2023/04/11 09:59:17;;;;;;;;;;;10.40;99.90;;;;;;5002411;28;19964;-67
2023/04/11 10:01:43;;;;;;;;;;;10.60;99.90;;;;;;5003675;28;19981;-66
2023/04/11 10:04:10;;;;;;;;;;;10.70;99.90;;;;;;5003737;28;19944;-68
2023/04/11 10:06:41;;;;;;;;;;;10.80;99.90;;;;;;5003417;28;19922;-67
2023/04/11 10:09:09;;;;;;;;;;;10.90;99.90;;;;;;5003550;28;19985;-67
2023/04/11 10:11:36;;;;;;;;;;;10.70;99.90;;;;;;5003465;28;19922;-67
2023/04/11 10:14:03;;;;;;;;;;;10.40;99.90;;;;;;5006715;28;19921;-67
2023/04/11 10:16:32;;;;;;;;;;;10.40;99.90;;;;;;5006717;28;19957;-67
2023/04/11 10:19:29;;;;;;;;;;;10.60;99.90;;;;;;5006867;28;20263;-68
2023/04/11 10:21:56;;;;;;;;;;;10.70;99.90;;;;;;4966099;29;20125;-68
2023/04/11 10:24:25;;;;;;;;;;;10.90;99.90;;;;;;4996931;28;19929;-68
2023/04/11 10:26:52;;;;;;;;;;;11.00;99.90;;;;;;5006501;28;20133;-68
2023/04/11 10:29:39;;;;;;;;;;;11.00;99.90;;;;;;5007004;28;19928;-68
2023/04/11 10:32:10;;;;;;;;;;;11.00;99.90;;;;;;5006848;28;19922;-68
2023/04/11 10:34:38;;;;;;;;;;;11.20;99.90;;;;;;5006801;28;19981;-67
2023/04/11 10:37:07;;;;;;;;;;;11.20;99.90;;;;;;5005713;28;20263;-68
2023/04/11 10:39:49;;;;;;;;;;;11.10;99.90;;;;;;5003998;28;21110;-69
2023/04/11 10:42:28;;;;;;;;;;;11.00;99.90;;;;;;5006145;28;19968;-67
2023/04/11 10:45:09;;;;;;;;;;;11.00;99.90;;;;;;5000271;28;19985;-68
2023/04/11 10:47:37;;;;;;;;;;;10.80;99.90;;;;;;5004438;28;19922;-67
2023/04/11 10:50:24;;;;;;;;;;;10.60;99.90;;;;;;5006395;28;19984;-68
2023/04/11 10:52:51;;;;;;;;;;;10.60;99.90;;;;;;5004021;28;19985;-67
2023/04/11 10:55:18;;;;;;;;;;;10.20;99.90;;;;;;5006602;28;19922;-67
2023/04/11 10:58:05;;;;;;;;;;;10.10;99.90;;;;;;5006067;28;20209;-67
2023/04/11 11:01:00;;;;;;;;;;;10.30;99.90;;;;;;5002285;28;19922;-68
2023/04/11 11:03:32;;;;;;;;;;;10.40;99.90;;;;;;4981028;28;19928;-66
2023/04/11 11:06:00;;;;;;;;;;;10.60;99.90;;;;;;4986087;28;19989;-66
2023/04/11 11:08:29;;;;;;;;;;;10.80;99.90;;;;;;4985805;28;19993;-68
2023/04/11 11:10:59;;;;;;;;;;;11.00;99.90;;;;;;4994031;28;19922;-67
2023/04/11 11:13:37;;;;;;;;;;;11.10;99.90;;;;;;4985099;28;19922;-67
2023/04/11 11:16:04;;;;;;;;;;;11.20;99.90;;;;;;4998520;28;19964;-67
2023/04/11 11:18:32;;;;;;;;;;;11.40;99.90;;;;;;5005999;28;19922;-68
2023/04/11 11:20:59;;;;;;;;;;;11.60;99.90;;;;;;4994376;28;19993;-68
2023/04/11 11:23:25;;;;;;;;;;;11.80;99.90;;;;;;5000879;28;19929;-67
2023/04/11 11:25:53;;;;;;;;;;;12.00;99.90;;;;;;4989876;28;19922;-68
2023/04/11 11:28:20;;;;;;;;;;;12.00;99.90;;;;;;4987386;28;19946;-67
2023/04/11 11:30:50;;;;;;;;;;;12.10;99.90;;;;;;5005400;28;20000;-67
2023/04/11 11:33:17;;;;;;;;;;;12.00;99.90;;;;;;5005472;28;19929;-68
2023/04/11 11:35:50;;;;;;;;;;;12.20;99.90;;;;;;5005311;28;19972;-67
2023/04/11 11:38:17;;;;;;;;;;;12.20;99.90;;;;;;5004608;28;19961;-68
2023/04/11 11:40:45;;;;;;;;;;;12.10;99.90;;;;;;4993693;28;19989;-68
2023/04/11 11:43:12;;;;;;;;;;;12.00;99.90;;;;;;4993003;28;19930;-67
2023/04/11 11:45:38;;;;;;;;;;;11.90;99.90;;;;;;4985325;28;19922;-66
2023/04/11 11:48:05;;;;;;;;;;;11.70;99.90;;;;;;5002184;28;19965;-68
2023/04/11 11:50:32;;;;;;;;;;;11.60;99.90;;;;;;4991807;28;19921;-68
2023/04/11 11:53:12;;;;;;;;;;;11.50;99.90;;;;;;4996361;28;19928;-67
2023/04/11 11:55:39;;;;;;;;;;;11.70;99.90;;;;;;4994849;28;19969;-68
2023/04/11 11:58:05;;;;;;;;;;;12.00;99.90;;;;;;4997960;28;19981;-68
2023/04/11 12:00:36;;;;;;;;;;;12.20;99.90;;;;;;4995875;28;19928;-68
2023/04/11 12:03:04;;;;;;;;;;;12.40;99.90;;;;;;5001278;28;19926;-69
2023/04/11 12:05:31;;;;;;;;;;;12.60;99.90;;;;;;5004940;28;20182;-68
2023/04/11 12:08:03;;;;;;;;;;;12.80;99.90;;;;;;5001846;28;19928;-68
2023/04/11 12:10:37;;;;;;;;;;;12.60;99.90;;;;;;5004930;28;19922;-69
2023/04/11 12:13:10;;;;;;;;;;;12.50;99.90;;;;;;5004328;28;19926;-67
2023/04/11 12:15:37;;;;;;;;;;;12.20;99.90;;;;;;5004277;28;19945;-67
2023/04/11 12:18:05;;;;;;;;;;;11.70;99.90;;;;;;5004350;28;19960;-68
2023/04/11 12:20:31;;;;;;;;;;;11.50;99.90;;;;;;5004922;28;19992;-67
2023/04/11 12:22:58;;;;;;;;;;;11.40;99.90;;;;;;5004860;28;19949;-68
2023/04/11 12:25:27;;;;;;;;;;;11.20;99.90;;;;;;5004501;28;19993;-68
2023/04/11 12:27:55;;;;;;;;;;;11.30;99.90;;;;;;5001433;28;19922;-67
2023/04/11 12:30:21;;;;;;;;;;;11.70;99.90;;;;;;5004235;28;19984;-68
2023/04/11 12:32:48;;;;;;;;;;;11.80;99.90;;;;;;5004049;28;19953;-68
2023/04/11 12:35:15;;;;;;;;;;;11.80;99.90;;;;;;4994124;28;19929;-68
2023/04/11 12:37:42;;;;;;;;;;;11.70;99.90;;;;;;4996076;28;20220;-68
2023/04/11 12:40:10;;;;;;;;;;;11.70;99.90;;;;;;5003805;28;19957;-67
2023/04/11 12:42:38;;;;;;;;;;;11.70;99.90;;;;;;5004175;28;20260;-68
2023/04/11 12:45:06;;;;;;;;;;;11.90;99.90;;;;;;5000079;28;19960;-69
2023/04/11 12:47:33;;;;;;;;;;;12.20;99.90;;;;;;4998114;28;19929;-68
2023/04/11 12:50:00;;;;;;;;;;;12.50;99.90;;;;;;4999706;28;19958;-68
2023/04/11 12:52:27;;;;;;;;;;;12.50;99.90;;;;;;5000924;28;19921;-67
2023/04/11 12:54:54;;;;;;;;;;;12.50;99.90;;;;;;4988503;28;20269;-68
2023/04/11 12:57:21;;;;;;;;;;;12.50;99.90;;;;;;4995468;28;19922;-70
2023/04/11 12:59:49;;;;;;;;;;;12.60;99.90;;;;;;5003759;28;20257;-68
2023/04/11 13:02:16;;;;;;;;;;;12.40;99.90;;;;;;5003919;28;19921;-68
2023/04/11 13:04:43;;;;;;;;;;;12.50;99.90;;;;;;4984423;28;19926;-68
2023/04/11 13:07:11;;;;;;;;;;;12.50;99.90;;;;;;4981491;28;20232;-68
2023/04/11 13:09:38;;;;;;;;;;;12.30;99.90;;;;;;4984357;28;20036;-68
2023/04/11 13:12:04;;;;;;;;;;;11.90;99.90;;;;;;4984547;28;19991;-68
2023/04/11 13:14:31;;;;;;;;;;;11.60;99.90;;;;;;4986249;28;19989;-67
2023/04/11 13:16:59;;;;;;;;;;;11.30;99.90;;;;;;5003223;28;20162;-68
2023/04/11 13:19:26;;;;;;;;;;;11.20;99.90;;;;;;5003272;28;19922;-68
2023/04/11 13:21:52;;;;;;;;;;;11.10;99.90;;;;;;5003611;28;19989;-68
2023/04/11 13:24:19;;;;;;;;;;;10.90;99.90;;;;;;5003318;28;19984;-68
2023/04/11 13:26:45;;;;;;;;;;;10.70;99.90;;;;;;4996258;28;19953;-68
2023/04/11 13:29:12;;;;;;;;;;;10.40;99.90;;;;;;4991734;28;20170;-67
2023/04/11 13:31:39;;;;;;;;;;;10.10;99.90;;;;;;5003998;28;19953;-68
2023/04/11 13:34:07;;;;;;;;;;;9.70;99.90;;;;;;5002623;28;19994;-66
2023/04/11 13:36:34;;;;;;;;;;;9.40;99.90;;;;;;5002516;28;19986;-68
2023/04/11 13:39:00;;;;;;;;;;;9.20;99.90;;;;;;5002153;28;19960;-68
2023/04/11 13:41:27;;;;;;;;;;;9.20;99.90;;;;;;5004005;28;19953;-68
2023/04/11 13:43:54;;;;;;;;;;;9.50;99.90;;;;;;5004003;28;19953;-67
2023/04/11 13:46:22;;;;;;;;;;;10.00;99.90;;;;;;5003872;28;20004;-68
2023/04/11 13:48:48;;;;;;;;;;;10.50;99.90;;;;;;5006849;28;19956;-68
2023/04/11 13:51:16;;;;;;;;;;;10.90;99.90;;;;;;5007436;28;19957;-68
2023/04/11 13:53:43;;;;;;;;;;;11.00;99.90;;;;;;5007322;28;20176;-68
2023/04/11 13:56:10;;;;;;;;;;;11.00;99.90;;;;;;5006941;28;19921;-68
2023/04/11 13:58:37;;;;;;;;;;;10.90;99.90;;;;;;4997200;28;19930;-67
2023/04/11 14:01:03;;;;;;;;;;;10.80;99.90;;;;;;4987983;28;20009;-68
2023/04/11 14:03:32;;;;;;;;;;;11.00;99.90;;;;;;4987997;28;20219;-68
2023/04/11 14:05:59;;;;;;;;;;;11.60;99.90;;;;;;4999121;28;19968;-67
2023/04/11 14:08:27;;;;;;;;;;;11.80;99.90;;;;;;5006647;28;19949;-68
2023/04/11 14:10:54;;;;;;;;;;;11.90;99.90;;;;;;5007136;28;19952;-68
2023/04/11 14:13:20;;;;;;;;;;;12.00;99.90;;;;;;5007168;28;19953;-66
2023/04/11 14:15:47;;;;;;;;;;;12.10;99.90;;;;;;5007150;28;19929;-67
2023/04/11 14:18:14;;;;;;;;;;;11.80;99.90;;;;;;5006035;28;20276;-68
2023/04/11 14:20:41;;;;;;;;;;;11.60;99.90;;;;;;4991384;28;19929;-69
2023/04/11 14:23:09;;;;;;;;;;;11.70;99.90;;;;;;4987233;28;19957;-68
2023/04/11 14:25:37;;;;;;;;;;;11.70;99.90;;;;;;4987589;28;19989;-67